createdAt,value
2022-08-09T00:00:20.349Z,102763.44
2022-08-09T00:02:53.116Z,102763.44
2022-08-09T00:06:19.506Z,102760.66
2022-08-09T00:08:31.941Z,102761.84
2022-08-09T00:11:24.540Z,102753.06
2022-08-09T00:13:59.559Z,102754.66
2022-08-09T00:16:36.443Z,102759.44
2022-08-09T00:19:10.633Z,102745.91
2022-08-09T00:21:56.026Z,102751.84
2022-08-09T00:24:31.831Z,102749.88
2022-08-09T00:27:04.995Z,102749.06
2022-08-09T00:30:24.366Z,102753.88
2022-08-09T00:32:32.139Z,102749.06
2022-08-09T00:35:07.335Z,102749.06
2022-08-09T00:37:40.220Z,102745.91
2022-08-09T00:40:17.205Z,102757.81
2022-08-09T00:44:09.986Z,102758.63
2022-08-09T00:45:50.510Z,102759.03
2022-08-09T00:48:26.823Z,102757.03
2022-08-09T00:51:03.211Z,102751.44
2022-08-09T00:53:46.421Z,102753.84
2022-08-09T00:56:19.177Z,102753.03
2022-08-09T00:58:52.077Z,102747.84
2022-08-09T01:01:45.089Z,102748.25
2022-08-09T01:04:27.535Z,102751.44
2022-08-09T01:07:14.009Z,102745.84
2022-08-09T01:09:54.087Z,102747.84
2022-08-09T01:12:34.279Z,102745.06
2022-08-09T01:15:17.571Z,102749.03
2022-08-09T01:17:57.855Z,102742.22
2022-08-09T01:20:49.517Z,102745.41
2022-08-09T01:24:02.009Z,102744.19
2022-08-09T01:26:56.224Z,102741.00
2022-08-09T01:29:41.242Z,102741.78
2022-08-09T01:32:37.369Z,102750.56
2022-08-09T01:35:28.944Z,102751.31
2022-08-09T01:38:15.146Z,102747.34
2022-08-09T01:41:05.098Z,102750.53
2022-08-09T01:43:51.964Z,102747.34
2022-08-09T01:46:28.865Z,102756.09
2022-08-09T01:49:09.487Z,102759.59
2022-08-09T01:51:54.012Z,102760.03
2022-08-09T01:54:32.893Z,102758.44
2022-08-09T01:57:11.661Z,102753.66
2022-08-09T01:59:59.994Z,102756.03
2022-08-09T02:02:36.752Z,102764.78
2022-08-09T02:05:16.119Z,102756.00
2022-08-09T02:08:39.948Z,102761.56
2022-08-09T02:10:51.305Z,102758.75
2022-08-09T02:13:37.216Z,102751.19
2022-08-09T02:16:18.582Z,102757.16
2022-08-09T02:19:06.830Z,102748.81
2022-08-09T02:21:42.740Z,102748.81
2022-08-09T02:24:25.841Z,102746.78
2022-08-09T02:27:03.438Z,102744.78
2022-08-09T02:29:41.855Z,102740.00
2022-08-09T02:32:19.511Z,102734.47
2022-08-09T02:34:59.724Z,102735.22
2022-08-09T02:37:36.696Z,102737.63
2022-08-09T02:40:14.463Z,102737.97
2022-08-09T02:43:01.363Z,102734.44
2022-08-09T02:45:38.760Z,102734.81
2022-08-09T02:48:30.442Z,102735.56
2022-08-09T02:51:05.431Z,102730.00
2022-08-09T02:53:43.069Z,102728.00
2022-08-09T02:56:28.418Z,102731.19
2022-08-09T02:59:04.779Z,102727.16
2022-08-09T03:01:43.164Z,102726.00
2022-08-09T03:04:36.929Z,102728.78
2022-08-09T03:07:13.878Z,102722.78
2022-08-09T03:09:54.375Z,102718.81
2022-08-09T03:12:31.033Z,102723.22
2022-08-09T03:15:06.016Z,102715.59
2022-08-09T03:17:43.332Z,102721.13
2022-08-09T03:20:17.635Z,102724.31
2022-08-09T03:22:56.887Z,102727.09
2022-08-09T03:25:58.034Z,102726.66
2022-08-09T03:28:28.270Z,102726.28
2022-08-09T03:31:04.463Z,102725.84
2022-08-09T03:33:53.478Z,102731.81
2022-08-09T03:36:29.262Z,102735.00
2022-08-09T03:39:04.526Z,102736.59
2022-08-09T03:41:44.851Z,102737.34
2022-08-09T03:44:21.590Z,102732.97
2022-08-09T03:47:00.537Z,102730.19
2022-08-09T03:49:35.723Z,102738.13
2022-08-09T03:52:11.632Z,102744.44
2022-08-09T03:54:47.433Z,102746.84
2022-08-09T03:57:24.108Z,102748.41
2022-08-09T04:00:00.775Z,102749.22
2022-08-09T04:02:46.061Z,102749.22
2022-08-09T04:05:27.369Z,102749.22
2022-08-09T04:08:02.285Z,102754.78
2022-08-09T04:10:35.039Z,102751.56
2022-08-09T04:13:11.436Z,102751.53
2022-08-09T04:16:18.380Z,102761.84
2022-08-09T04:18:40.882Z,102758.69
2022-08-09T04:21:14.237Z,102763.44
2022-08-09T04:23:53.774Z,102772.97
2022-08-09T04:26:35.132Z,102771.38
2022-08-09T04:29:15.729Z,102771.38
2022-08-09T04:31:48.600Z,102783.31
2022-08-09T04:34:30.468Z,102780.13
2022-08-09T04:37:04.362Z,102788.81
2022-08-09T04:39:40.826Z,102784.50
2022-08-09T04:42:15.875Z,102793.97
2022-08-09T04:44:51.455Z,102781.66
2022-08-09T04:47:27.075Z,102782.44
2022-08-09T04:50:19.678Z,102772.91
2022-08-09T04:52:57.383Z,102785.16
2022-08-09T04:55:43.596Z,102786.41
2022-08-09T04:58:25.276Z,102786.03
2022-08-09T05:00:58.727Z,102790.34
2022-08-09T05:03:43.266Z,102780.41
2022-08-09T05:06:22.012Z,102784.78
2022-08-09T05:09:01.401Z,102780.00
2022-08-09T05:11:36.104Z,102777.19
2022-08-09T05:14:08.818Z,102776.81
2022-08-09T05:16:58.136Z,102784.38
2022-08-09T05:19:45.971Z,102781.53
2022-08-09T05:22:34.929Z,102780.00
2022-08-09T05:25:12.150Z,102779.16
2022-08-09T05:27:50.761Z,102789.13
2022-08-09T05:30:23.585Z,102782.38
2022-08-09T05:32:56.431Z,102787.94
2022-08-09T05:35:29.151Z,102784.72
2022-08-09T05:38:05.283Z,102785.94
2022-08-09T05:40:38.492Z,102785.91
2022-08-09T05:43:12.593Z,102795.03
2022-08-09T05:45:56.732Z,102798.22
2022-08-09T05:48:33.117Z,102805.38
2022-08-09T05:51:16.870Z,102814.09
2022-08-09T05:53:59.374Z,102812.91
2022-08-09T05:56:33.498Z,102812.13
2022-08-09T05:59:07.633Z,102816.88
2022-08-09T06:01:47.748Z,102819.66
2022-08-09T06:04:23.362Z,102821.25
2022-08-09T06:06:56.442Z,102822.06
2022-08-09T06:09:54.978Z,102819.34
2022-08-09T06:12:22.091Z,102824.84
2022-08-09T06:15:01.897Z,102827.28
2022-08-09T06:17:40.436Z,102827.69
2022-08-09T06:20:13.490Z,102829.59
2022-08-09T06:22:51.040Z,102831.13
2022-08-09T06:25:23.927Z,102823.66
2022-08-09T06:27:56.690Z,102827.56
2022-08-09T06:30:30.784Z,102830.66
2022-08-09T06:33:39.777Z,102837.44
2022-08-09T06:35:58.366Z,102837.50
2022-08-09T06:38:32.269Z,102838.03
2022-08-09T06:41:18.762Z,102843.13
2022-08-09T06:43:53.073Z,102856.09
2022-08-09T06:46:40.324Z,102847.81
2022-08-09T06:49:29.047Z,102845.16
2022-08-09T06:52:11.937Z,102854.72
2022-08-09T06:54:44.942Z,102858.25
2022-08-09T06:57:17.618Z,102851.81
2022-08-09T07:00:50.576Z,102855.19
2022-08-09T07:02:52.780Z,102861.53
2022-08-09T07:06:02.740Z,102859.34
2022-08-09T07:08:18.672Z,102856.22
2022-08-09T07:10:51.818Z,102860.63
2022-08-09T07:13:28.378Z,102864.31
2022-08-09T07:16:39.059Z,102862.19
2022-08-09T07:18:57.714Z,102865.66
2022-08-09T07:21:30.993Z,102870.63
2022-08-09T07:24:07.985Z,102865.22
2022-08-09T07:26:40.653Z,102864.47
2022-08-09T07:29:13.690Z,102864.53
2022-08-09T07:31:48.178Z,102867.78
2022-08-09T07:34:23.459Z,102865.44
2022-08-09T07:36:58.500Z,102855.91
2022-08-09T07:39:41.126Z,102838.41
2022-08-09T07:42:15.163Z,102847.16
2022-08-09T07:44:52.540Z,102848.03
2022-08-09T07:47:26.644Z,102849.22
2022-08-09T07:50:07.846Z,102851.22
2022-08-09T07:52:43.115Z,102859.97
2022-08-09T07:55:16.416Z,102859.94
2022-08-09T07:57:50.258Z,102857.53
2022-08-09T08:00:36.487Z,102851.94
2022-08-09T08:03:11.457Z,102854.31
2022-08-09T08:05:54.232Z,102848.28
2022-08-09T08:09:02.584Z,102853.00
2022-08-09T08:12:11.532Z,102859.00
2022-08-09T08:14:17.039Z,102865.69
2022-08-09T08:17:00.483Z,102860.47
2022-08-09T08:19:33.996Z,102851.69
2022-08-09T08:22:09.046Z,102866.38
2022-08-09T08:24:47.178Z,102868.25
2022-08-09T08:27:21.882Z,102868.94
2022-08-09T08:29:58.881Z,102873.69
2022-08-09T08:32:36.618Z,102867.09
2022-08-09T08:35:25.105Z,102862.69
2022-08-09T08:38:11.845Z,102869.75
2022-08-09T08:40:49.529Z,102872.38
2022-08-09T08:43:23.663Z,102871.44
2022-08-09T08:46:24.829Z,102869.34
2022-08-09T08:48:54.824Z,102868.94
2022-08-09T08:51:40.274Z,102873.59
2022-08-09T08:54:20.300Z,102869.03
2022-08-09T08:56:53.917Z,102868.47
2022-08-09T08:59:46.609Z,102872.22
2022-08-09T09:02:31.004Z,102876.16
2022-08-09T09:05:06.022Z,102875.38
2022-08-09T09:07:48.945Z,102881.25
2022-08-09T09:10:26.214Z,102884.38
2022-08-09T09:12:59.653Z,102884.97
2022-08-09T09:15:41.988Z,102876.88
2022-08-09T09:18:22.329Z,102882.03
2022-08-09T09:20:57.816Z,102888.13
2022-08-09T09:23:41.503Z,102885.47
2022-08-09T09:26:26.060Z,102891.25
2022-08-09T09:29:04.300Z,102877.66
2022-08-09T09:32:04.441Z,102876.53
2022-08-09T09:34:45.029Z,102874.91
2022-08-09T09:37:32.137Z,102877.09
2022-08-09T09:40:06.522Z,102880.03
2022-08-09T09:42:43.049Z,102882.34
2022-08-09T09:45:26.628Z,102885.75
2022-08-09T09:48:05.040Z,102894.81
2022-08-09T09:50:49.672Z,102884.00
2022-08-09T09:53:43.952Z,102893.88
2022-08-09T09:56:31.548Z,102893.81
2022-08-09T09:59:08.578Z,102885.31
2022-08-09T10:01:43.300Z,102886.84
2022-08-09T10:04:23.093Z,102881.63
2022-08-09T10:07:09.839Z,102873.56
2022-08-09T10:09:54.988Z,102873.50
2022-08-09T10:12:31.349Z,102872.59
2022-08-09T10:15:17.724Z,102867.56
2022-08-09T10:18:11.883Z,102867.88
2022-08-09T10:20:45.592Z,102864.72
2022-08-09T10:23:21.129Z,102855.53
2022-08-09T10:26:06.123Z,102851.91
2022-08-09T10:28:48.642Z,102858.91
2022-08-09T10:34:32.653Z,102854.38
2022-08-09T10:37:09.655Z,102848.50
2022-08-09T10:39:49.156Z,102860.69
2022-08-09T10:42:26.920Z,102858.84
2022-08-09T10:45:04.441Z,102873.38
2022-08-09T10:48:20.499Z,102862.34
2022-08-09T10:51:12.116Z,102868.53
2022-08-09T10:54:02.168Z,102857.81
2022-08-09T10:56:39.750Z,102853.56
2022-08-09T10:59:55.474Z,102850.06
2022-08-09T11:03:27.582Z,102852.31
2022-08-09T11:05:32.299Z,102845.31
2022-08-09T11:08:43.773Z,102846.34
2022-08-09T11:11:21.242Z,102848.31
2022-08-09T11:14:28.507Z,102848.16
2022-08-09T11:17:01.710Z,102853.94
2022-08-09T11:20:11.088Z,102853.78
2022-08-09T11:23:02.848Z,102856.16
2022-08-09T11:25:48.661Z,102852.97
2022-08-09T11:28:56.498Z,102852.81
2022-08-09T11:31:52.619Z,102839.47
2022-08-09T11:34:36.110Z,102840.41
2022-08-09T11:37:18.199Z,102837.88
2022-08-09T11:40:07.455Z,102831.31
2022-08-09T11:42:51.578Z,102835.75
2022-08-09T11:45:42.284Z,102831.38
2022-08-09T11:48:26.792Z,102828.41
2022-08-09T11:51:19.367Z,102820.50
2022-08-09T11:54:28.634Z,102822.25
2022-08-09T11:57:48.020Z,102823.84
2022-08-09T12:00:34.877Z,102825.59
2022-08-09T12:03:54.724Z,102823.50
2022-08-09T12:06:15.708Z,102823.03
2022-08-09T12:08:51.636Z,102812.13
2022-08-09T12:11:26.482Z,102812.16
2022-08-09T12:14:07.695Z,102812.72
2022-08-09T12:16:44.917Z,102812.91
2022-08-09T12:19:29.583Z,102812.84
2022-08-09T12:22:04.999Z,102809.38
2022-08-09T12:24:37.686Z,102818.78
2022-08-09T12:28:59.388Z,102810.69
2022-08-09T12:30:36.839Z,102813.78
2022-08-09T12:33:07.719Z,102811.06
2022-08-09T12:35:43.036Z,102809.97
2022-08-09T12:38:37.525Z,102810.31
2022-08-09T12:41:11.838Z,102807.94
2022-08-09T12:44:05.258Z,102814.84
2022-08-09T12:46:40.693Z,102800.84
2022-08-09T12:49:13.853Z,102801.44
2022-08-09T12:52:02.752Z,102799.63
2022-08-09T12:55:03.442Z,102795.00
2022-08-09T12:57:46.677Z,102800.91
2022-08-09T13:00:25.162Z,102796.41
2022-08-09T13:03:01.472Z,102796.78
2022-08-09T13:05:51.767Z,102792.50
2022-08-09T13:08:40.856Z,102783.66
2022-08-09T13:11:23.370Z,102780.31
2022-08-09T13:14:41.540Z,102787.97
2022-08-09T13:16:54.557Z,102788.00
2022-08-09T13:20:06.776Z,102790.75
2022-08-09T13:23:00.385Z,102787.50
2022-08-09T13:25:19.345Z,102783.47
2022-08-09T13:27:55.641Z,102784.34
2022-08-09T13:30:48.706Z,102775.44
2022-08-09T13:33:53.176Z,102772.19
2022-08-09T13:36:38.000Z,102762.97
2022-08-09T13:41:18.989Z,102767.94
2022-08-09T13:42:12.640Z,102763.44
2022-08-09T13:44:48.673Z,102758.44
2022-08-09T13:47:33.070Z,102760.28
2022-08-09T13:50:29.988Z,102759.22
2022-08-09T13:53:07.405Z,102759.09
2022-08-09T13:55:41.079Z,102769.31
2022-08-09T13:58:18.007Z,102763.03
2022-08-09T14:00:52.635Z,102762.25
2022-08-09T14:04:02.689Z,102757.69
2022-08-09T14:06:25.666Z,102751.00
2022-08-09T14:09:03.996Z,102750.22
2022-08-09T14:11:46.931Z,102743.91
2022-08-09T14:14:26.033Z,102739.63
2022-08-09T14:17:00.155Z,102743.41
2022-08-09T14:19:34.516Z,102741.06
2022-08-09T14:22:07.924Z,102743.50
2022-08-09T14:24:53.348Z,102732.47
2022-08-09T14:27:26.958Z,102735.81
2022-08-09T14:30:36.963Z,102742.09
2022-08-09T14:32:52.350Z,102742.38
2022-08-09T14:35:25.953Z,102744.44
2022-08-09T14:38:18.514Z,102739.69
2022-08-09T14:41:02.276Z,102740.88
2022-08-09T14:43:53.250Z,102735.50
2022-08-09T14:46:57.964Z,102737.34
2022-08-09T14:49:19.615Z,102733.78
2022-08-09T14:51:58.898Z,102735.59
2022-08-09T14:54:33.916Z,102738.19
2022-08-09T14:57:08.999Z,102731.72
2022-08-09T14:59:45.498Z,102732.22
2022-08-09T15:02:21.831Z,102727.13
2022-08-09T15:04:55.839Z,102726.44
2022-08-09T15:07:28.610Z,102722.16
2022-08-09T15:10:11.341Z,102728.56
2022-08-09T15:12:48.545Z,102729.16
2022-08-09T15:15:23.037Z,102725.00
2022-08-09T15:17:56.329Z,102726.94
2022-08-09T15:21:57.883Z,102723.28
2022-08-09T15:24:06.010Z,102724.31
2022-08-09T15:26:19.030Z,102732.59
2022-08-09T15:29:05.107Z,102724.31
2022-08-09T15:31:41.679Z,102708.31
2022-08-09T15:34:31.496Z,102720.56
2022-08-09T15:37:37.487Z,102718.16
2022-08-09T15:40:13.902Z,102712.47
2022-08-09T15:42:48.276Z,102720.16
2022-08-09T15:45:29.877Z,102717.56
2022-08-09T15:48:07.595Z,102706.75
2022-08-09T15:50:49.017Z,102703.91
2022-08-09T15:54:04.484Z,102704.59
2022-08-09T15:56:29.206Z,102692.91
2022-08-09T15:59:03.898Z,102711.31
2022-08-09T16:01:40.790Z,102698.78
2022-08-09T16:04:15.640Z,102706.25
2022-08-09T16:06:50.391Z,102697.75
2022-08-09T16:09:32.591Z,102698.03
2022-08-09T16:12:16.440Z,102692.25
2022-08-09T16:14:49.250Z,102686.75
2022-08-09T16:17:28.819Z,102686.47
2022-08-09T16:20:04.790Z,102677.84
2022-08-09T16:22:48.613Z,102679.44
2022-08-09T16:25:36.941Z,102684.13
2022-08-09T16:28:13.726Z,102689.56
2022-08-09T16:30:58.877Z,102682.28
2022-08-09T16:33:35.831Z,102679.94
2022-08-09T16:36:17.632Z,102678.06
2022-08-09T16:38:53.425Z,102690.69
2022-08-09T16:42:02.998Z,102688.22
2022-08-09T16:44:18.967Z,102691.28
2022-08-09T16:46:55.214Z,102680.78
2022-08-09T16:50:31.237Z,102686.38
2022-08-09T16:52:28.882Z,102684.03
2022-08-09T16:55:02.557Z,102677.75
2022-08-09T16:58:09.027Z,102681.94
2022-08-09T17:00:28.778Z,102676.75
2022-08-09T17:03:03.412Z,102683.03
2022-08-09T17:06:06.740Z,102684.50
2022-08-09T17:08:46.353Z,102686.56
2022-08-09T17:11:39.998Z,102682.19
2022-08-09T17:14:25.486Z,102692.41
2022-08-09T17:17:04.007Z,102679.97
2022-08-09T17:20:28.286Z,102688.38
2022-08-09T17:22:52.742Z,102693.94
2022-08-09T17:25:26.250Z,102687.63
2022-08-09T17:28:06.020Z,102690.81
2022-08-09T17:30:38.768Z,102691.78
2022-08-09T17:33:22.726Z,102682.63
2022-08-09T17:35:55.926Z,102682.47
2022-08-09T17:38:33.981Z,102679.13
2022-08-09T17:41:11.165Z,102683.41
2022-08-09T17:43:50.694Z,102682.28
2022-08-09T17:46:39.237Z,102678.16
2022-08-09T17:49:28.243Z,102679.34
2022-08-09T17:52:03.808Z,102678.25
2022-08-09T17:54:38.125Z,102684.25
2022-08-09T17:57:20.675Z,102682.31
2022-08-09T18:00:04.934Z,102680.03
2022-08-09T18:02:57.899Z,102681.03
2022-08-09T18:05:43.285Z,102687.44
2022-08-09T18:08:16.670Z,102683.63
2022-08-09T18:11:00.782Z,102687.25
2022-08-09T18:13:43.520Z,102684.25
2022-08-09T18:16:30.702Z,102685.34
2022-08-09T18:20:54.130Z,102677.47
2022-08-09T18:21:57.219Z,102674.97
2022-08-09T18:24:33.731Z,102684.88
2022-08-09T18:27:10.199Z,102684.97
2022-08-09T18:30:38.593Z,102680.03
2022-08-09T18:32:39.217Z,102675.69
2022-08-09T18:35:12.230Z,102681.31
2022-08-09T18:37:54.663Z,102681.88
2022-08-09T18:40:27.676Z,102678.34
2022-08-09T18:43:01.691Z,102675.28
2022-08-09T18:46:47.067Z,102684.34
2022-08-09T18:48:30.086Z,102685.97
2022-08-09T18:51:03.559Z,102678.50
2022-08-09T18:54:00.513Z,102677.84
2022-08-09T18:56:30.741Z,102676.50
2022-08-09T18:59:07.029Z,102675.72
2022-08-09T19:01:45.894Z,102678.44
2022-08-09T19:04:34.739Z,102675.22
2022-08-09T19:07:08.177Z,102686.00
2022-08-09T19:10:13.945Z,102683.13
2022-08-09T19:12:37.040Z,102688.91
2022-08-09T19:15:13.180Z,102680.84
2022-08-09T19:17:55.133Z,102687.94
2022-08-09T19:20:34.433Z,102693.66
2022-08-09T19:23:16.531Z,102698.97
2022-08-09T19:26:02.027Z,102693.25
2022-08-09T19:28:38.274Z,102697.19
2022-08-09T19:31:17.133Z,102694.75
2022-08-09T19:33:49.955Z,102695.63
2022-08-09T19:36:23.367Z,102701.41
2022-08-09T19:39:05.791Z,102703.72
2022-08-09T19:41:38.708Z,102714.41
2022-08-09T19:44:15.267Z,102728.06
2022-08-09T19:46:53.383Z,102716.59
2022-08-09T19:50:08.285Z,102724.28
2022-08-09T19:52:20.198Z,102724.38
2022-08-09T19:54:52.913Z,102727.69
2022-08-09T19:57:26.051Z,102725.09
2022-08-09T20:00:07.299Z,102730.41
2022-08-09T20:04:10.524Z,102725.91
2022-08-09T20:05:46.409Z,102725.34
2022-08-09T20:08:33.382Z,102717.44
2022-08-09T20:11:08.175Z,102724.13
2022-08-09T20:13:41.323Z,102722.16
2022-08-09T20:16:35.314Z,102725.00
2022-08-09T20:19:47.567Z,102725.75
2022-08-09T20:22:09.826Z,102726.72
2022-08-09T20:24:53.847Z,102730.00
2022-08-09T20:27:29.146Z,102728.66
2022-08-09T20:30:02.524Z,102730.59
2022-08-09T20:32:36.037Z,102729.94
2022-08-09T20:35:11.446Z,102734.50
2022-08-09T20:38:20.787Z,102730.66
2022-08-09T20:40:37.915Z,102730.56
2022-08-09T20:43:24.412Z,102728.09
2022-08-09T20:46:15.559Z,102727.44
2022-08-09T20:48:50.723Z,102726.63
2022-08-09T20:51:25.551Z,102729.09
2022-08-09T20:53:58.321Z,102731.91
2022-08-09T20:56:31.026Z,102745.66
2022-08-09T20:59:03.773Z,102740.56
2022-08-09T21:01:50.940Z,102738.19
2022-08-09T21:05:57.595Z,102739.16
2022-08-09T21:07:20.696Z,102744.94
2022-08-09T21:10:03.312Z,102744.50
2022-08-09T21:12:39.003Z,102744.09
2022-08-09T21:15:13.387Z,102742.63
2022-08-09T21:18:22.214Z,102739.00
2022-08-09T21:20:39.684Z,102741.94
2022-08-09T21:23:14.277Z,102731.22
2022-08-09T21:25:59.387Z,102734.00
2022-08-09T21:28:36.134Z,102734.41
2022-08-09T21:31:17.856Z,102731.19
2022-08-09T21:33:56.715Z,102722.97
2022-08-09T21:36:30.513Z,102727.81
2022-08-09T21:39:05.847Z,102719.16
2022-08-09T21:42:05.686Z,102725.03
2022-08-09T21:44:33.384Z,102719.47
2022-08-09T21:47:09.926Z,102711.25
2022-08-09T21:49:43.410Z,102716.13
2022-08-09T21:52:20.707Z,102711.75
2022-08-09T21:54:59.392Z,102721.75
2022-08-09T21:57:59.238Z,102717.25
2022-08-09T22:00:33.246Z,102716.94
2022-08-09T22:03:08.127Z,102715.53
2022-08-09T22:05:52.232Z,102714.44
2022-08-09T22:08:26.520Z,102714.44
2022-08-09T22:11:49.878Z,102709.94
2022-08-09T22:13:53.478Z,102709.47
2022-08-09T22:16:26.337Z,102716.63
2022-08-09T22:18:59.029Z,102714.53
2022-08-09T22:21:49.779Z,102713.41
2022-08-09T22:24:24.760Z,102710.66
2022-08-09T22:26:59.353Z,102711.03
2022-08-09T22:29:46.568Z,102719.50
2022-08-09T22:32:30.093Z,102713.50
2022-08-09T22:35:06.807Z,102715.88
2022-08-09T22:38:06.821Z,102721.56
2022-08-09T22:40:49.144Z,102716.41
2022-08-09T22:44:01.368Z,102728.41
2022-08-09T22:48:11.990Z,102725.63
2022-08-09T22:49:17.267Z,102722.44
2022-08-09T22:51:56.980Z,102727.16
2022-08-09T22:54:30.383Z,102731.72
2022-08-09T22:57:03.111Z,102724.50
2022-08-09T22:59:55.518Z,102727.75
2022-08-09T23:02:30.026Z,102728.28
2022-08-09T23:05:02.910Z,102732.38
2022-08-09T23:08:27.270Z,102726.00
2022-08-09T23:10:49.856Z,102718.75
2022-08-09T23:13:22.612Z,102722.88
2022-08-09T23:16:02.845Z,102726.88
2022-08-09T23:18:36.486Z,102730.47
2022-08-09T23:21:10.823Z,102727.69
2022-08-09T23:23:44.171Z,102720.94
2022-08-09T23:26:38.336Z,102726.00
2022-08-09T23:29:13.696Z,102722.88
2022-08-09T23:31:52.538Z,102724.47
2022-08-09T23:34:27.056Z,102722.19
2022-08-09T23:36:59.808Z,102724.56
2022-08-09T23:39:32.723Z,102716.13
2022-08-09T23:42:06.005Z,102716.19
2022-08-09T23:44:38.997Z,102718.19
2022-08-09T23:47:13.165Z,102711.78
2022-08-09T23:49:45.997Z,102711.78
2022-08-09T23:52:18.730Z,102711.69
2022-08-09T23:54:57.182Z,102704.56
2022-08-09T23:57:30.060Z,102710.25
